createdAt,value
2018-09-05T00:00:56.510Z,37.70
2018-09-05T00:05:59.710Z,42.27
2018-09-05T00:11:02.943Z,38.15
2018-09-05T00:16:06.139Z,38.92
2018-09-05T00:21:09.348Z,37.17
2018-09-05T00:26:12.553Z,41.55
2018-09-05T00:31:15.805Z,42.88
2018-09-05T00:36:19.068Z,42.08
2018-09-05T00:41:22.254Z,36.00
2018-09-05T00:46:25.457Z,38.58
2018-09-05T00:51:28.670Z,42.03
2018-09-05T00:56:31.880Z,41.83
2018-09-05T01:01:35.083Z,38.40
2018-09-05T01:06:38.291Z,43.70
2018-09-05T01:11:41.502Z,46.95
2018-09-05T01:16:44.679Z,53.07
2018-09-05T01:21:47.871Z,55.33
2018-09-05T01:26:51.077Z,57.70
2018-09-05T01:31:54.254Z,52.25
2018-09-05T01:36:57.467Z,46.27
2018-09-05T01:42:00.667Z,51.53
2018-09-05T01:47:03.882Z,56.98
2018-09-05T01:52:07.114Z,50.83
2018-09-05T01:57:10.370Z,44.65
2018-09-05T02:02:14.006Z,46.25
2018-09-05T02:07:17.350Z,45.45
2018-09-05T02:12:20.572Z,41.00
2018-09-05T02:17:23.835Z,43.95
2018-09-05T02:22:27.034Z,44.50
2018-09-05T02:27:30.217Z,49.73
2018-09-05T02:32:33.421Z,49.37
2018-09-05T02:37:36.610Z,46.33
2018-09-05T02:42:39.810Z,49.42
2018-09-05T02:47:42.986Z,52.77
2018-09-05T02:52:46.178Z,47.62
2018-09-05T02:57:49.451Z,42.55
2018-09-05T03:02:52.695Z,43.67
2018-09-05T03:07:55.950Z,43.55
2018-09-05T03:12:59.194Z,41.55
2018-09-05T03:18:02.410Z,45.10
2018-09-05T03:23:05.651Z,41.35
2018-09-05T03:28:09.535Z,48.95
2018-09-05T03:33:12.757Z,44.38
2018-09-05T03:38:15.989Z,45.47
2018-09-05T03:43:19.248Z,46.90
2018-09-05T03:48:22.471Z,47.63
2018-09-05T03:53:26.846Z,50.40
2018-09-05T03:58:36.778Z,52.05
2018-09-05T04:03:40.350Z,50.30
2018-09-05T04:08:43.559Z,55.20
2018-09-05T04:13:47.332Z,52.10
2018-09-05T04:18:51.956Z,50.77
2018-09-05T04:23:55.239Z,53.23
2018-09-05T04:28:58.474Z,52.58
2018-09-05T04:34:01.707Z,46.37
2018-09-05T04:39:07.822Z,51.53
2018-09-05T04:44:11.078Z,51.40
2018-09-05T04:49:44.220Z,50.48
2018-09-05T04:54:47.451Z,52.35
2018-09-05T04:59:50.932Z,50.40
2018-09-05T05:04:54.573Z,50.70
2018-09-05T05:09:57.823Z,45.55
2018-09-05T05:15:01.056Z,40.10
2018-09-05T05:20:04.340Z,39.27
2018-09-05T05:25:07.643Z,36.77
2018-09-05T05:30:10.892Z,31.00
2018-09-05T05:35:14.503Z,27.77
2018-09-05T05:40:17.836Z,26.82
2018-09-05T05:45:21.067Z,27.05
2018-09-05T05:50:24.290Z,25.30
2018-09-05T05:55:27.845Z,27.42
2018-09-05T06:00:31.056Z,24.17
2018-09-05T06:05:34.264Z,24.73
2018-09-05T06:10:37.484Z,23.20
2018-09-05T06:15:40.759Z,21.90
2018-09-05T06:20:43.946Z,22.80
2018-09-05T06:25:47.174Z,22.10
2018-09-05T06:30:50.639Z,21.50
2018-09-05T06:35:53.939Z,20.80
2018-09-05T06:40:57.115Z,20.95
2018-09-05T06:46:00.316Z,20.50
2018-09-05T06:51:06.326Z,20.33
2018-09-05T06:56:09.511Z,19.10
2018-09-05T07:01:12.709Z,20.23
2018-09-05T07:06:15.912Z,19.25
2018-09-05T07:11:19.198Z,18.25
2018-09-05T07:16:22.495Z,18.75
2018-09-05T07:21:25.824Z,16.95
2018-09-05T07:26:28.992Z,16.60
2018-09-05T07:31:32.224Z,19.48
2018-09-05T07:36:35.410Z,16.27
2018-09-05T07:41:39.599Z,15.60
2018-09-05T07:46:42.792Z,15.15
2018-09-05T07:51:45.994Z,17.57
2018-09-05T07:56:49.233Z,15.35
2018-09-05T08:01:52.423Z,15.40
2018-09-05T08:06:55.615Z,14.85
2018-09-05T08:11:58.824Z,15.55
2018-09-05T08:17:02.555Z,14.10
2018-09-05T08:22:05.792Z,14.00
2018-09-05T08:27:08.981Z,13.05
2018-09-05T08:32:12.166Z,12.95
2018-09-05T08:37:15.657Z,12.45
2018-09-05T08:42:18.845Z,12.23
2018-09-05T08:47:22.148Z,11.63
2018-09-05T08:52:25.279Z,13.60
2018-09-05T08:57:28.486Z,14.33
2018-09-05T09:02:31.680Z,11.27
2018-09-05T09:07:34.920Z,12.55
2018-09-05T09:12:38.102Z,11.10
2018-09-05T09:17:41.700Z,10.35
2018-09-05T09:22:44.891Z,9.20
2018-09-05T09:27:48.123Z,9.78
2018-09-05T09:32:51.312Z,11.13
2018-09-05T09:37:54.639Z,11.05
2018-09-05T09:42:57.806Z,8.98
2018-09-05T09:48:02.015Z,8.03
2018-09-05T09:53:05.218Z,7.78
2018-09-05T09:58:08.459Z,7.90
2018-09-05T10:03:17.224Z,7.12
2018-09-05T10:08:25.807Z,8.50
2018-09-05T10:13:34.597Z,11.80
2018-09-05T10:18:39.863Z,7.35
2018-09-05T10:23:43.070Z,7.47
2018-09-05T10:28:46.354Z,9.30
2018-09-05T10:33:49.585Z,7.28
2018-09-05T10:38:52.821Z,7.80
2018-09-05T10:43:56.031Z,8.55
2018-09-05T10:48:59.260Z,8.58
2018-09-05T10:54:02.507Z,9.43
2018-09-05T10:59:05.743Z,8.13
2018-09-05T11:04:08.995Z,6.70
2018-09-05T11:09:12.656Z,8.30
2018-09-05T11:14:15.874Z,8.57
2018-09-05T11:19:19.099Z,8.95
2018-09-05T11:24:22.363Z,9.30
2018-09-05T11:29:25.587Z,10.28
2018-09-05T11:34:28.818Z,7.00
2018-09-05T11:39:32.170Z,8.08
2018-09-05T11:44:36.223Z,9.30
2018-09-05T11:49:39.502Z,9.53
2018-09-05T11:54:42.731Z,8.20
2018-09-05T11:59:45.941Z,7.00
2018-09-05T12:04:49.287Z,8.20
2018-09-05T12:09:52.516Z,7.87
2018-09-05T12:14:55.744Z,8.95
2018-09-05T12:19:58.979Z,7.53
2018-09-05T12:25:02.475Z,5.70
2018-09-05T12:30:05.701Z,6.73
2018-09-05T12:35:08.940Z,6.00
2018-09-05T12:40:12.539Z,5.30
2018-09-05T12:45:15.760Z,6.83
2018-09-05T12:50:18.982Z,6.20
2018-09-05T12:55:22.251Z,6.03
2018-09-05T13:00:25.595Z,6.40
2018-09-05T13:05:28.884Z,5.53
2018-09-05T13:10:32.364Z,8.00
2018-09-05T13:15:35.583Z,5.80
2018-09-05T13:20:38.979Z,5.90
2018-09-05T13:25:42.227Z,5.92
2018-09-05T13:30:45.720Z,5.70
2018-09-05T13:35:48.958Z,5.07
2018-09-05T13:40:52.190Z,6.70
2018-09-05T13:45:55.418Z,5.67
2018-09-05T13:50:58.657Z,5.62
2018-09-05T13:56:02.315Z,5.97
2018-09-05T14:01:06.585Z,6.37
2018-09-05T14:06:09.798Z,6.40
2018-09-05T14:11:13.019Z,6.20
2018-09-05T14:16:16.263Z,5.00
2018-09-05T14:21:19.487Z,8.78
2018-09-05T14:26:23.056Z,5.20
2018-09-05T14:31:26.288Z,6.30
2018-09-05T14:36:29.537Z,4.60
2018-09-05T14:41:32.718Z,3.65
2018-09-05T14:46:36.183Z,4.90
2018-09-05T14:51:39.399Z,5.55
2018-09-05T14:56:42.731Z,5.20
2018-09-05T15:01:46.018Z,4.53
2018-09-05T15:06:49.237Z,5.27
2018-09-05T15:11:52.571Z,5.17
2018-09-05T15:16:55.786Z,5.40
2018-09-05T15:21:59.055Z,4.53
2018-09-05T15:27:03.102Z,7.03
2018-09-05T15:32:06.378Z,4.50
2018-09-05T15:37:09.617Z,4.10
2018-09-05T15:42:13.514Z,5.20
2018-09-05T15:47:16.792Z,5.73
2018-09-05T15:52:19.995Z,6.13
2018-09-05T15:57:23.245Z,4.78
2018-09-05T16:02:26.403Z,6.12
2018-09-05T16:07:29.611Z,5.35
2018-09-05T16:12:32.781Z,5.40
2018-09-05T16:17:36.244Z,6.12
2018-09-05T16:22:39.455Z,7.12
2018-09-05T16:27:42.639Z,5.15
2018-09-05T16:32:45.870Z,6.33
2018-09-05T16:37:49.055Z,7.03
2018-09-05T16:42:52.847Z,7.55
2018-09-05T16:47:56.023Z,7.20
2018-09-05T16:52:59.231Z,7.62
2018-09-05T16:58:02.520Z,8.43
2018-09-05T17:03:05.760Z,6.42
2018-09-05T17:08:09.007Z,9.17
2018-09-05T17:13:12.218Z,7.53
2018-09-05T17:18:15.422Z,6.22
2018-09-05T17:23:18.682Z,7.37
2018-09-05T17:28:21.926Z,7.05
2018-09-05T17:33:25.156Z,6.17
2018-09-05T17:38:28.492Z,8.58
2018-09-05T17:43:32.754Z,7.15
2018-09-05T17:48:36.523Z,6.55
2018-09-05T17:53:39.806Z,6.33
2018-09-05T17:58:42.955Z,7.72
2018-09-05T18:03:46.244Z,7.92
2018-09-05T18:08:49.484Z,8.80
2018-09-05T18:13:53.723Z,7.12
2018-09-05T18:18:57.151Z,7.92
2018-09-05T18:24:00.370Z,5.93
2018-09-05T18:29:03.620Z,9.50
2018-09-05T18:34:06.854Z,7.10
2018-09-05T18:39:10.884Z,6.17
2018-09-05T18:44:14.096Z,10.90
2018-09-05T18:49:17.425Z,10.68
2018-09-05T18:54:20.592Z,7.80
2018-09-05T18:59:23.821Z,11.65
2018-09-05T19:04:27.030Z,7.75
2018-09-05T19:09:30.270Z,8.30
2018-09-05T19:14:33.444Z,9.33
2018-09-05T19:19:36.696Z,7.37
2018-09-05T19:24:39.910Z,7.90
2018-09-05T19:29:43.123Z,6.47
2018-09-05T19:34:46.358Z,9.13
2018-09-05T19:39:49.591Z,6.73
2018-09-05T19:44:52.820Z,7.87
2018-09-05T19:49:56.239Z,9.30
2018-09-05T19:54:59.482Z,7.22
2018-09-05T20:00:02.723Z,9.43
2018-09-05T20:05:06.028Z,10.08
2018-09-05T20:10:09.480Z,7.83
2018-09-05T20:15:12.746Z,13.17
2018-09-05T20:20:15.935Z,5.85
2018-09-05T20:25:19.678Z,6.33
2018-09-05T20:30:22.975Z,9.00
2018-09-05T20:35:26.199Z,8.40
2018-09-05T20:40:29.431Z,8.03
2018-09-05T20:45:32.683Z,8.33
2018-09-05T20:50:35.883Z,6.60
2018-09-05T20:55:39.079Z,8.37
2018-09-05T21:00:42.263Z,7.40
2018-09-05T21:05:45.438Z,6.62
2018-09-05T21:10:48.667Z,6.55
2018-09-05T21:15:51.895Z,8.60
2018-09-05T21:20:58.464Z,8.00
2018-09-05T21:26:01.652Z,6.27
2018-09-05T21:31:05.020Z,7.53
2018-09-05T21:36:08.295Z,8.40
2018-09-05T21:41:11.488Z,7.25
2018-09-05T21:46:14.663Z,7.10
2018-09-05T21:51:17.886Z,7.45
2018-09-05T21:56:21.144Z,6.65
2018-09-05T22:01:24.391Z,10.13
2018-09-05T22:06:27.599Z,8.50
2018-09-05T22:11:30.887Z,11.13
2018-09-05T22:16:34.067Z,8.75
2018-09-05T22:21:37.312Z,8.58
2018-09-05T22:26:40.866Z,6.58
2018-09-05T22:31:44.107Z,8.55
2018-09-05T22:36:47.310Z,5.97
2018-09-05T22:41:50.537Z,6.17
2018-09-05T22:47:05.147Z,6.83
2018-09-05T22:53:24.209Z,6.67
2018-09-05T22:58:52.372Z,8.53
2018-09-05T23:06:18.920Z,8.35
2018-09-05T23:11:39.967Z,8.48
2018-09-05T23:19:27.058Z,7.60
2018-09-05T23:24:30.267Z,10.08
2018-09-05T23:29:33.460Z,9.43
2018-09-05T23:34:36.639Z,10.25
2018-09-05T23:39:39.852Z,6.62
2018-09-05T23:44:43.029Z,10.23
2018-09-05T23:49:46.339Z,7.87
2018-09-05T23:54:49.604Z,9.35
2018-09-05T23:59:52.824Z,8.40
